sensor_id;sensor_type;location;lat;lon;timestamp;P1;durP1;ratioP1;P2;durP2;ratioP2
10309;SDS011;5200;43.236;27.986;2023-03-01T00:00:52;0.10;;;0.10;;
10309;SDS011;5200;43.236;27.986;2023-03-01T00:03:20;0.10;;;0.10;;
10309;SDS011;5200;43.236;27.986;2023-03-01T00:05:47;0.10;;;0.10;;
10309;SDS011;5200;43.236;27.986;2023-03-01T00:08:13;0.00;;;0.00;;
10309;SDS011;5200;43.236;27.986;2023-03-01T00:10:40;0.07;;;0.07;;
10309;SDS011;5200;43.236;27.986;2023-03-01T00:13:07;0.10;;;0.10;;
10309;SDS011;5200;43.236;27.986;2023-03-01T00:15:37;0.00;;;0.00;;
10309;SDS011;5200;43.236;27.986;2023-03-01T00:18:04;0.10;;;0.10;;
10309;SDS011;5200;43.236;27.986;2023-03-01T00:20:33;0.07;;;0.07;;
10309;SDS011;5200;43.236;27.986;2023-03-01T00:22:59;0.00;;;0.00;;
10309;SDS011;5200;43.236;27.986;2023-03-01T00:25:26;0.05;;;0.05;;
10309;SDS011;5200;43.236;27.986;2023-03-01T00:27:53;0.10;;;0.10;;
10309;SDS011;5200;43.236;27.986;2023-03-01T00:30:20;0.00;;;0.00;;
10309;SDS011;5200;43.236;27.986;2023-03-01T00:32:47;0.00;;;0.00;;
10309;SDS011;5200;43.236;27.986;2023-03-01T00:35:14;0.20;;;0.20;;
10309;SDS011;5200;43.236;27.986;2023-03-01T00:37:42;0.10;;;0.10;;
10309;SDS011;5200;43.236;27.986;2023-03-01T00:40:09;0.10;;;0.10;;
10309;SDS011;5200;43.236;27.986;2023-03-01T00:42:37;0.00;;;0.00;;
10309;SDS011;5200;43.236;27.986;2023-03-01T00:45:04;0.03;;;0.03;;
10309;SDS011;5200;43.236;27.986;2023-03-01T00:47:32;0.10;;;0.10;;
10309;SDS011;5200;43.236;27.986;2023-03-01T00:49:59;0.00;;;0.00;;
10309;SDS011;5200;43.236;27.986;2023-03-01T00:52:26;0.10;;;0.10;;
10309;SDS011;5200;43.236;27.986;2023-03-01T00:54:54;0.00;;;0.00;;
10309;SDS011;5200;43.236;27.986;2023-03-01T00:57:22;0.10;;;0.10;;
10309;SDS011;5200;43.236;27.986;2023-03-01T00:59:49;0.05;;;0.05;;
10309;SDS011;5200;43.236;27.986;2023-03-01T01:02:17;0.10;;;0.10;;
10309;SDS011;5200;43.236;27.986;2023-03-01T01:04:44;0.00;;;0.00;;
10309;SDS011;5200;43.236;27.986;2023-03-01T01:07:11;0.10;;;0.10;;
10309;SDS011;5200;43.236;27.986;2023-03-01T01:09:39;0.00;;;0.00;;
10309;SDS011;5200;43.236;27.986;2023-03-01T01:12:07;0.00;;;0.00;;
10309;SDS011;5200;43.236;27.986;2023-03-01T01:14:36;0.00;;;0.00;;
10309;SDS011;5200;43.236;27.986;2023-03-01T01:17:05;0.00;;;0.00;;
10309;SDS011;5200;43.236;27.986;2023-03-01T01:19:31;0.10;;;0.10;;
10309;SDS011;5200;43.236;27.986;2023-03-01T01:22:01;0.07;;;0.07;;
10309;SDS011;5200;43.236;27.986;2023-03-01T01:24:28;0.00;;;0.00;;
10309;SDS011;5200;43.236;27.986;2023-03-01T01:26:55;0.00;;;0.00;;
10309;SDS011;5200;43.236;27.986;2023-03-01T01:29:23;0.10;;;0.10;;
10309;SDS011;5200;43.236;27.986;2023-03-01T01:31:50;0.00;;;0.00;;
10309;SDS011;5200;43.236;27.986;2023-03-01T01:34:17;0.00;;;0.00;;
10309;SDS011;5200;43.236;27.986;2023-03-01T01:36:47;0.10;;;0.10;;
10309;SDS011;5200;43.236;27.986;2023-03-01T01:39:14;0.03;;;0.03;;
10309;SDS011;5200;43.236;27.986;2023-03-01T01:41:41;0.00;;;0.00;;
10309;SDS011;5200;43.236;27.986;2023-03-01T01:44:14;0.00;;;0.00;;
10309;SDS011;5200;43.236;27.986;2023-03-01T01:46:45;0.10;;;0.10;;
10309;SDS011;5200;43.236;27.986;2023-03-01T01:49:26;0.00;;;0.00;;
10309;SDS011;5200;43.236;27.986;2023-03-01T01:52:02;0.10;;;0.10;;
10309;SDS011;5200;43.236;27.986;2023-03-01T01:54:37;0.00;;;0.00;;
10309;SDS011;5200;43.236;27.986;2023-03-01T01:57:09;0.00;;;0.00;;
10309;SDS011;5200;43.236;27.986;2023-03-01T01:59:41;0.10;;;0.10;;
10309;SDS011;5200;43.236;27.986;2023-03-01T02:02:13;0.17;;;0.17;;
10309;SDS011;5200;43.236;27.986;2023-03-01T02:04:40;0.10;;;0.10;;
10309;SDS011;5200;43.236;27.986;2023-03-01T02:07:09;0.00;;;0.00;;
10309;SDS011;5200;43.236;27.986;2023-03-01T02:09:41;0.10;;;0.10;;
10309;SDS011;5200;43.236;27.986;2023-03-01T02:12:11;0.05;;;0.05;;
10309;SDS011;5200;43.236;27.986;2023-03-01T02:14:39;0.00;;;0.00;;
10309;SDS011;5200;43.236;27.986;2023-03-01T02:17:06;0.10;;;0.10;;
10309;SDS011;5200;43.236;27.986;2023-03-01T02:19:38;0.00;;;0.00;;
10309;SDS011;5200;43.236;27.986;2023-03-01T02:22:14;0.03;;;0.03;;
10309;SDS011;5200;43.236;27.986;2023-03-01T02:24:48;0.10;;;0.10;;
10309;SDS011;5200;43.236;27.986;2023-03-01T02:27:26;0.03;;;0.03;;
10309;SDS011;5200;43.236;27.986;2023-03-01T02:30:00;0.00;;;0.00;;
10309;SDS011;5200;43.236;27.986;2023-03-01T02:32:27;0.00;;;0.00;;
10309;SDS011;5200;43.236;27.986;2023-03-01T02:34:54;0.00;;;0.00;;
10309;SDS011;5200;43.236;27.986;2023-03-01T02:37:22;0.00;;;0.00;;
10309;SDS011;5200;43.236;27.986;2023-03-01T02:39:53;0.00;;;0.00;;
10309;SDS011;5200;43.236;27.986;2023-03-01T02:42:26;0.10;;;0.10;;
10309;SDS011;5200;43.236;27.986;2023-03-01T02:44:56;0.00;;;0.00;;
10309;SDS011;5200;43.236;27.986;2023-03-01T02:47:25;0.10;;;0.10;;
10309;SDS011;5200;43.236;27.986;2023-03-01T02:49:52;0.40;;;0.40;;
10309;SDS011;5200;43.236;27.986;2023-03-01T02:52:23;0.10;;;0.10;;
10309;SDS011;5200;43.236;27.986;2023-03-01T02:55:00;0.40;;;0.40;;
10309;SDS011;5200;43.236;27.986;2023-03-01T02:57:30;0.10;;;0.10;;
10309;SDS011;5200;43.236;27.986;2023-03-01T02:59:59;0.10;;;0.10;;
10309;SDS011;5200;43.236;27.986;2023-03-01T03:02:34;0.00;;;0.00;;
10309;SDS011;5200;43.236;27.986;2023-03-01T03:05:05;0.00;;;0.00;;
10309;SDS011;5200;43.236;27.986;2023-03-01T03:07:35;0.00;;;0.00;;
10309;SDS011;5200;43.236;27.986;2023-03-01T03:10:04;0.00;;;0.00;;
10309;SDS011;5200;43.236;27.986;2023-03-01T03:12:36;0.10;;;0.10;;
10309;SDS011;5200;43.236;27.986;2023-03-01T03:15:03;1.95;;;1.85;;
10309;SDS011;5200;43.236;27.986;2023-03-01T03:17:35;0.10;;;0.10;;
10309;SDS011;5200;43.236;27.986;2023-03-01T03:20:02;0.00;;;0.00;;
10309;SDS011;5200;43.236;27.986;2023-03-01T03:22:31;0.10;;;0.10;;
10309;SDS011;5200;43.236;27.986;2023-03-01T03:24:59;0.00;;;0.00;;
10309;SDS011;5200;43.236;27.986;2023-03-01T03:27:27;0.10;;;0.10;;
10309;SDS011;5200;43.236;27.986;2023-03-01T03:29:54;0.20;;;0.20;;
10309;SDS011;5200;43.236;27.986;2023-03-01T03:32:20;0.10;;;0.10;;
10309;SDS011;5200;43.236;27.986;2023-03-01T03:34:48;0.00;;;0.00;;
10309;SDS011;5200;43.236;27.986;2023-03-01T03:37:15;0.50;;;0.50;;
10309;SDS011;5200;43.236;27.986;2023-03-01T03:39:56;0.00;;;0.00;;
10309;SDS011;5200;43.236;27.986;2023-03-01T03:42:23;0.03;;;0.03;;
10309;SDS011;5200;43.236;27.986;2023-03-01T03:44:50;0.00;;;0.00;;
10309;SDS011;5200;43.236;27.986;2023-03-01T03:47:16;0.00;;;0.00;;
10309;SDS011;5200;43.236;27.986;2023-03-01T03:49:43;0.40;;;0.40;;
10309;SDS011;5200;43.236;27.986;2023-03-01T03:52:11;0.20;;;0.20;;
10309;SDS011;5200;43.236;27.986;2023-03-01T03:54:39;0.10;;;0.10;;
10309;SDS011;5200;43.236;27.986;2023-03-01T03:57:09;0.10;;;0.10;;
10309;SDS011;5200;43.236;27.986;2023-03-01T03:59:36;0.10;;;0.10;;
10309;SDS011;5200;43.236;27.986;2023-03-01T04:02:05;0.00;;;0.00;;
10309;SDS011;5200;43.236;27.986;2023-03-01T04:04:33;0.10;;;0.10;;
10309;SDS011;5200;43.236;27.986;2023-03-01T04:07:00;0.00;;;0.00;;
10309;SDS011;5200;43.236;27.986;2023-03-01T04:09:28;0.10;;;0.10;;
10309;SDS011;5200;43.236;27.986;2023-03-01T04:11:56;0.40;;;0.40;;
10309;SDS011;5200;43.236;27.986;2023-03-01T04:14:23;0.80;;;0.80;;
10309;SDS011;5200;43.236;27.986;2023-03-01T04:16:49;0.13;;;0.13;;
10309;SDS011;5200;43.236;27.986;2023-03-01T04:19:16;0.00;;;0.00;;
10309;SDS011;5200;43.236;27.986;2023-03-01T04:21:43;0.20;;;0.20;;
10309;SDS011;5200;43.236;27.986;2023-03-01T04:24:10;0.10;;;0.10;;
10309;SDS011;5200;43.236;27.986;2023-03-01T04:26:38;0.10;;;0.10;;
10309;SDS011;5200;43.236;27.986;2023-03-01T04:29:05;0.10;;;0.10;;
10309;SDS011;5200;43.236;27.986;2023-03-01T04:31:32;0.10;;;0.10;;
10309;SDS011;5200;43.236;27.986;2023-03-01T04:33:59;0.00;;;0.00;;
10309;SDS011;5200;43.236;27.986;2023-03-01T04:36:27;0.00;;;0.00;;
10309;SDS011;5200;43.236;27.986;2023-03-01T04:38:55;0.10;;;0.10;;
10309;SDS011;5200;43.236;27.986;2023-03-01T04:41:23;0.10;;;0.10;;
10309;SDS011;5200;43.236;27.986;2023-03-01T04:43:52;0.10;;;0.10;;
10309;SDS011;5200;43.236;27.986;2023-03-01T04:46:19;0.00;;;0.00;;
10309;SDS011;5200;43.236;27.986;2023-03-01T04:48:47;0.00;;;0.00;;
10309;SDS011;5200;43.236;27.986;2023-03-01T04:51:14;0.10;;;0.10;;
10309;SDS011;5200;43.236;27.986;2023-03-01T04:53:41;0.00;;;0.00;;
10309;SDS011;5200;43.236;27.986;2023-03-01T04:56:09;0.00;;;0.00;;
10309;SDS011;5200;43.236;27.986;2023-03-01T04:58:36;0.10;;;0.10;;
10309;SDS011;5200;43.236;27.986;2023-03-01T05:01:09;0.20;;;0.20;;
10309;SDS011;5200;43.236;27.986;2023-03-01T05:03:40;0.10;;;0.10;;
10309;SDS011;5200;43.236;27.986;2023-03-01T05:06:07;0.00;;;0.00;;
10309;SDS011;5200;43.236;27.986;2023-03-01T05:08:34;0.10;;;0.10;;
10309;SDS011;5200;43.236;27.986;2023-03-01T05:11:03;0.10;;;0.10;;
10309;SDS011;5200;43.236;27.986;2023-03-01T05:13:30;0.10;;;0.10;;
10309;SDS011;5200;43.236;27.986;2023-03-01T05:15:58;0.00;;;0.00;;
10309;SDS011;5200;43.236;27.986;2023-03-01T05:18:28;0.53;;;0.53;;
10309;SDS011;5200;43.236;27.986;2023-03-01T05:21:01;0.00;;;0.00;;
10309;SDS011;5200;43.236;27.986;2023-03-01T05:23:30;0.05;;;0.05;;
10309;SDS011;5200;43.236;27.986;2023-03-01T05:25:57;0.10;;;0.10;;
10309;SDS011;5200;43.236;27.986;2023-03-01T05:28:25;0.00;;;0.00;;
10309;SDS011;5200;43.236;27.986;2023-03-01T05:30:53;0.10;;;0.10;;
10309;SDS011;5200;43.236;27.986;2023-03-01T05:33:21;0.20;;;0.20;;
10309;SDS011;5200;43.236;27.986;2023-03-01T05:35:50;0.32;;;0.32;;
10309;SDS011;5200;43.236;27.986;2023-03-01T05:38:19;0.20;;;0.20;;
10309;SDS011;5200;43.236;27.986;2023-03-01T05:40:48;0.00;;;0.00;;
10309;SDS011;5200;43.236;27.986;2023-03-01T05:43:15;0.00;;;0.00;;
10309;SDS011;5200;43.236;27.986;2023-03-01T05:45:43;0.00;;;0.00;;
10309;SDS011;5200;43.236;27.986;2023-03-01T05:48:10;0.10;;;0.10;;
10309;SDS011;5200;43.236;27.986;2023-03-01T05:50:40;0.40;;;0.40;;
10309;SDS011;5200;43.236;27.986;2023-03-01T05:53:11;0.20;;;0.20;;
10309;SDS011;5200;43.236;27.986;2023-03-01T05:55:38;0.10;;;0.10;;
10309;SDS011;5200;43.236;27.986;2023-03-01T05:58:07;0.00;;;0.00;;
10309;SDS011;5200;43.236;27.986;2023-03-01T06:00:36;0.10;;;0.10;;
10309;SDS011;5200;43.236;27.986;2023-03-01T06:03:03;0.00;;;0.00;;
10309;SDS011;5200;43.236;27.986;2023-03-01T06:05:30;0.00;;;0.00;;
10309;SDS011;5200;43.236;27.986;2023-03-01T06:08:15;0.10;;;0.10;;
10309;SDS011;5200;43.236;27.986;2023-03-01T06:10:42;0.00;;;0.00;;
10309;SDS011;5200;43.236;27.986;2023-03-01T06:13:09;0.15;;;0.15;;
10309;SDS011;5200;43.236;27.986;2023-03-01T06:15:35;0.10;;;0.10;;
10309;SDS011;5200;43.236;27.986;2023-03-01T06:18:03;0.10;;;0.10;;
10309;SDS011;5200;43.236;27.986;2023-03-01T06:20:29;0.00;;;0.00;;
10309;SDS011;5200;43.236;27.986;2023-03-01T06:22:56;0.00;;;0.00;;
10309;SDS011;5200;43.236;27.986;2023-03-01T06:25:26;0.10;;;0.10;;
10309;SDS011;5200;43.236;27.986;2023-03-01T06:27:53;0.00;;;0.00;;
10309;SDS011;5200;43.236;27.986;2023-03-01T06:30:21;0.10;;;0.10;;
10309;SDS011;5200;43.236;27.986;2023-03-01T06:32:49;0.00;;;0.00;;
10309;SDS011;5200;43.236;27.986;2023-03-01T06:35:17;0.10;;;0.10;;
10309;SDS011;5200;43.236;27.986;2023-03-01T06:37:44;0.00;;;0.00;;
10309;SDS011;5200;43.236;27.986;2023-03-01T06:40:12;0.05;;;0.05;;
10309;SDS011;5200;43.236;27.986;2023-03-01T06:42:41;0.10;;;0.10;;
10309;SDS011;5200;43.236;27.986;2023-03-01T06:45:10;0.10;;;0.10;;
10309;SDS011;5200;43.236;27.986;2023-03-01T06:47:37;0.00;;;0.00;;
10309;SDS011;5200;43.236;27.986;2023-03-01T06:50:04;0.43;;;0.43;;
10309;SDS011;5200;43.236;27.986;2023-03-01T06:52:31;0.00;;;0.00;;
10309;SDS011;5200;43.236;27.986;2023-03-01T06:57:28;0.00;;;0.00;;
10309;SDS011;5200;43.236;27.986;2023-03-01T06:59:57;0.00;;;0.00;;
10309;SDS011;5200;43.236;27.986;2023-03-01T07:02:24;0.10;;;0.10;;
10309;SDS011;5200;43.236;27.986;2023-03-01T07:04:50;0.00;;;0.00;;
10309;SDS011;5200;43.236;27.986;2023-03-01T07:07:18;0.00;;;0.00;;
10309;SDS011;5200;43.236;27.986;2023-03-01T07:09:45;0.00;;;0.00;;
10309;SDS011;5200;43.236;27.986;2023-03-01T07:12:12;0.03;;;0.03;;
10309;SDS011;5200;43.236;27.986;2023-03-01T07:14:38;0.00;;;0.00;;
10309;SDS011;5200;43.236;27.986;2023-03-01T07:17:07;0.90;;;0.90;;
10309;SDS011;5200;43.236;27.986;2023-03-01T07:19:33;0.03;;;0.03;;
10309;SDS011;5200;43.236;27.986;2023-03-01T07:22:00;0.00;;;0.00;;
10309;SDS011;5200;43.236;27.986;2023-03-01T07:24:29;0.00;;;0.00;;
10309;SDS011;5200;43.236;27.986;2023-03-01T07:26:56;0.63;;;0.63;;
10309;SDS011;5200;43.236;27.986;2023-03-01T07:29:23;0.10;;;0.10;;
10309;SDS011;5200;43.236;27.986;2023-03-01T07:31:49;0.00;;;0.00;;
10309;SDS011;5200;43.236;27.986;2023-03-01T07:34:18;0.10;;;0.10;;
10309;SDS011;5200;43.236;27.986;2023-03-01T07:36:44;0.10;;;0.10;;
10309;SDS011;5200;43.236;27.986;2023-03-01T14:01:27;7.47;;;6.15;;
10309;SDS011;5200;43.236;27.986;2023-03-01T14:03:56;9.25;;;5.85;;
10309;SDS011;5200;43.236;27.986;2023-03-01T14:06:24;7.63;;;5.63;;
10309;SDS011;5200;43.236;27.986;2023-03-01T14:08:59;9.50;;;6.13;;
10309;SDS011;5200;43.236;27.986;2023-03-01T14:14:39;9.55;;;6.05;;
10309;SDS011;5200;43.236;27.986;2023-03-01T14:17:15;11.23;;;5.82;;
10309;SDS011;5200;43.236;27.986;2023-03-01T14:20:07;9.15;;;6.00;;
10309;SDS011;5200;43.236;27.986;2023-03-01T14:22:38;6.60;;;5.72;;
10309;SDS011;5200;43.236;27.986;2023-03-01T14:25:17;8.45;;;6.18;;
10309;SDS011;5200;43.236;27.986;2023-03-01T14:27:51;8.05;;;6.60;;
10309;SDS011;5200;43.236;27.986;2023-03-01T14:30:22;11.75;;;6.72;;
10309;SDS011;5200;43.236;27.986;2023-03-01T14:32:53;7.78;;;6.97;;
10309;SDS011;5200;43.236;27.986;2023-03-01T14:35:22;9.60;;;6.43;;
10309;SDS011;5200;43.236;27.986;2023-03-01T14:37:51;8.23;;;6.45;;
10309;SDS011;5200;43.236;27.986;2023-03-01T14:40:22;10.70;;;7.53;;
10309;SDS011;5200;43.236;27.986;2023-03-01T14:42:51;9.18;;;7.43;;
10309;SDS011;5200;43.236;27.986;2023-03-01T14:45:19;18.98;;;10.25;;
10309;SDS011;5200;43.236;27.986;2023-03-01T14:47:46;10.77;;;6.30;;
10309;SDS011;5200;43.236;27.986;2023-03-01T14:50:21;13.88;;;7.55;;
10309;SDS011;5200;43.236;27.986;2023-03-01T14:52:52;9.50;;;7.15;;
10309;SDS011;5200;43.236;27.986;2023-03-01T14:55:21;9.85;;;6.65;;
10309;SDS011;5200;43.236;27.986;2023-03-01T14:57:54;7.07;;;6.03;;
10309;SDS011;5200;43.236;27.986;2023-03-01T15:00:23;9.27;;;6.47;;
10309;SDS011;5200;43.236;27.986;2023-03-01T15:02:53;9.32;;;6.70;;
10309;SDS011;5200;43.236;27.986;2023-03-01T15:05:26;9.38;;;6.82;;
10309;SDS011;5200;43.236;27.986;2023-03-01T15:07:55;18.92;;;9.50;;
10309;SDS011;5200;43.236;27.986;2023-03-01T15:10:25;7.97;;;6.55;;
10309;SDS011;5200;43.236;27.986;2023-03-01T15:12:54;9.40;;;7.10;;
10309;SDS011;5200;43.236;27.986;2023-03-01T15:15:32;9.95;;;7.45;;
10309;SDS011;5200;43.236;27.986;2023-03-01T15:18:02;9.30;;;7.07;;
10309;SDS011;5200;43.236;27.986;2023-03-01T15:20:33;9.48;;;5.97;;
10309;SDS011;5200;43.236;27.986;2023-03-01T15:23:03;11.57;;;6.72;;
10309;SDS011;5200;43.236;27.986;2023-03-01T15:25:33;8.57;;;7.18;;
10309;SDS011;5200;43.236;27.986;2023-03-01T15:28:03;13.38;;;9.07;;
10309;SDS011;5200;43.236;27.986;2023-03-01T15:30:32;13.55;;;7.78;;
10309;SDS011;5200;43.236;27.986;2023-03-01T15:35:56;13.23;;;8.60;;
10309;SDS011;5200;43.236;27.986;2023-03-01T15:38:28;9.48;;;7.03;;
10309;SDS011;5200;43.236;27.986;2023-03-01T15:41:00;10.32;;;6.80;;
10309;SDS011;5200;43.236;27.986;2023-03-01T15:43:42;10.95;;;6.78;;
10309;SDS011;5200;43.236;27.986;2023-03-01T15:46:27;12.82;;;9.25;;
10309;SDS011;5200;43.236;27.986;2023-03-01T15:48:57;10.70;;;7.45;;
10309;SDS011;5200;43.236;27.986;2023-03-01T15:51:34;9.32;;;7.38;;
10309;SDS011;5200;43.236;27.986;2023-03-01T15:54:04;11.02;;;7.97;;
10309;SDS011;5200;43.236;27.986;2023-03-01T15:56:32;16.88;;;8.85;;
10309;SDS011;5200;43.236;27.986;2023-03-01T15:59:00;17.83;;;10.65;;
10309;SDS011;5200;43.236;27.986;2023-03-01T16:01:28;10.73;;;8.13;;
10309;SDS011;5200;43.236;27.986;2023-03-01T16:03:56;14.38;;;9.23;;
10309;SDS011;5200;43.236;27.986;2023-03-01T16:06:23;18.80;;;10.10;;
10309;SDS011;5200;43.236;27.986;2023-03-01T16:08:52;16.58;;;11.40;;
10309;SDS011;5200;43.236;27.986;2023-03-01T16:11:19;11.73;;;8.15;;
10309;SDS011;5200;43.236;27.986;2023-03-01T16:13:46;10.27;;;8.02;;
10309;SDS011;5200;43.236;27.986;2023-03-01T16:16:15;11.18;;;8.20;;
10309;SDS011;5200;43.236;27.986;2023-03-01T16:18:43;10.60;;;7.75;;
10309;SDS011;5200;43.236;27.986;2023-03-01T16:21:11;9.80;;;7.32;;
10309;SDS011;5200;43.236;27.986;2023-03-01T16:23:40;37.67;;;19.17;;
10309;SDS011;5200;43.236;27.986;2023-03-01T16:26:09;20.92;;;12.45;;
10309;SDS011;5200;43.236;27.986;2023-03-01T16:28:36;11.57;;;9.35;;
10309;SDS011;5200;43.236;27.986;2023-03-01T16:31:03;13.68;;;8.35;;
10309;SDS011;5200;43.236;27.986;2023-03-01T16:33:30;12.52;;;7.88;;
10309;SDS011;5200;43.236;27.986;2023-03-01T16:35:57;16.00;;;8.05;;
10309;SDS011;5200;43.236;27.986;2023-03-01T16:38:25;10.68;;;8.68;;
10309;SDS011;5200;43.236;27.986;2023-03-01T16:40:52;11.40;;;9.27;;
10309;SDS011;5200;43.236;27.986;2023-03-01T16:43:20;11.05;;;8.40;;
10309;SDS011;5200;43.236;27.986;2023-03-01T16:45:47;9.27;;;7.55;;
10309;SDS011;5200;43.236;27.986;2023-03-01T16:48:14;13.20;;;8.80;;
10309;SDS011;5200;43.236;27.986;2023-03-01T16:50:41;13.57;;;9.38;;
10309;SDS011;5200;43.236;27.986;2023-03-01T16:53:08;11.85;;;8.93;;
10309;SDS011;5200;43.236;27.986;2023-03-01T16:55:35;16.60;;;10.52;;
10309;SDS011;5200;43.236;27.986;2023-03-01T16:58:03;13.82;;;9.35;;
10309;SDS011;5200;43.236;27.986;2023-03-01T17:00:32;16.45;;;11.75;;
10309;SDS011;5200;43.236;27.986;2023-03-01T17:03:00;12.32;;;10.20;;
10309;SDS011;5200;43.236;27.986;2023-03-01T17:05:27;16.08;;;12.02;;
10309;SDS011;5200;43.236;27.986;2023-03-01T17:07:54;12.05;;;9.82;;
10309;SDS011;5200;43.236;27.986;2023-03-01T17:10:25;14.07;;;11.25;;
10309;SDS011;5200;43.236;27.986;2023-03-01T17:12:51;18.00;;;11.55;;
10309;SDS011;5200;43.236;27.986;2023-03-01T17:15:19;15.15;;;10.75;;
10309;SDS011;5200;43.236;27.986;2023-03-01T17:17:50;17.25;;;10.88;;
10309;SDS011;5200;43.236;27.986;2023-03-01T17:20:19;15.73;;;11.77;;
10309;SDS011;5200;43.236;27.986;2023-03-01T17:22:46;14.98;;;11.70;;
10309;SDS011;5200;43.236;27.986;2023-03-01T17:25:14;19.77;;;13.98;;
10309;SDS011;5200;43.236;27.986;2023-03-01T17:27:44;17.50;;;12.95;;
10309;SDS011;5200;43.236;27.986;2023-03-01T17:30:11;11.90;;;9.75;;
10309;SDS011;5200;43.236;27.986;2023-03-01T17:32:40;10.18;;;8.13;;
10309;SDS011;5200;43.236;27.986;2023-03-01T17:35:09;10.13;;;7.88;;
10309;SDS011;5200;43.236;27.986;2023-03-01T17:37:37;11.70;;;8.52;;
10309;SDS011;5200;43.236;27.986;2023-03-01T17:40:05;11.73;;;8.32;;
10309;SDS011;5200;43.236;27.986;2023-03-01T17:42:33;11.03;;;7.97;;
10309;SDS011;5200;43.236;27.986;2023-03-01T17:45:00;11.38;;;8.63;;
10309;SDS011;5200;43.236;27.986;2023-03-01T17:47:27;14.38;;;9.30;;
10309;SDS011;5200;43.236;27.986;2023-03-01T17:49:55;10.25;;;7.63;;
10309;SDS011;5200;43.236;27.986;2023-03-01T17:52:24;10.93;;;8.77;;
10309;SDS011;5200;43.236;27.986;2023-03-01T17:54:53;11.32;;;8.45;;
10309;SDS011;5200;43.236;27.986;2023-03-01T17:57:20;11.13;;;8.53;;
10309;SDS011;5200;43.236;27.986;2023-03-01T17:59:50;14.63;;;9.48;;
10309;SDS011;5200;43.236;27.986;2023-03-01T18:02:19;11.82;;;9.10;;
10309;SDS011;5200;43.236;27.986;2023-03-01T18:04:46;13.82;;;8.93;;
10309;SDS011;5200;43.236;27.986;2023-03-01T18:07:13;11.55;;;8.40;;
10309;SDS011;5200;43.236;27.986;2023-03-01T18:09:43;10.73;;;8.90;;
10309;SDS011;5200;43.236;27.986;2023-03-01T18:12:12;11.55;;;8.50;;
10309;SDS011;5200;43.236;27.986;2023-03-01T18:14:38;16.05;;;10.45;;
10309;SDS011;5200;43.236;27.986;2023-03-01T18:17:05;11.07;;;8.35;;
10309;SDS011;5200;43.236;27.986;2023-03-01T18:19:36;9.98;;;7.78;;
10309;SDS011;5200;43.236;27.986;2023-03-01T18:22:05;11.52;;;8.60;;
10309;SDS011;5200;43.236;27.986;2023-03-01T18:24:34;10.48;;;7.57;;
10309;SDS011;5200;43.236;27.986;2023-03-01T18:27:04;10.30;;;8.30;;
10309;SDS011;5200;43.236;27.986;2023-03-01T18:29:31;16.15;;;8.27;;
10309;SDS011;5200;43.236;27.986;2023-03-01T18:31:58;10.00;;;8.27;;
10309;SDS011;5200;43.236;27.986;2023-03-01T18:34:25;11.97;;;8.67;;
10309;SDS011;5200;43.236;27.986;2023-03-01T18:36:55;11.80;;;8.95;;
10309;SDS011;5200;43.236;27.986;2023-03-01T18:39:24;12.18;;;9.38;;
10309;SDS011;5200;43.236;27.986;2023-03-01T18:41:55;12.82;;;9.40;;
10309;SDS011;5200;43.236;27.986;2023-03-01T18:44:27;13.23;;;9.82;;
10309;SDS011;5200;43.236;27.986;2023-03-01T18:46:54;11.50;;;8.38;;
10309;SDS011;5200;43.236;27.986;2023-03-01T18:49:23;13.60;;;9.00;;
10309;SDS011;5200;43.236;27.986;2023-03-01T18:51:53;14.90;;;9.88;;
10309;SDS011;5200;43.236;27.986;2023-03-01T18:54:20;17.73;;;10.05;;
10309;SDS011;5200;43.236;27.986;2023-03-01T18:56:49;15.50;;;10.13;;
10309;SDS011;5200;43.236;27.986;2023-03-01T18:59:16;16.33;;;10.32;;
10309;SDS011;5200;43.236;27.986;2023-03-01T19:01:45;16.38;;;10.57;;
10309;SDS011;5200;43.236;27.986;2023-03-01T19:04:13;13.65;;;9.30;;
10309;SDS011;5200;43.236;27.986;2023-03-01T19:06:43;19.70;;;12.35;;
10309;SDS011;5200;43.236;27.986;2023-03-01T19:09:10;15.07;;;12.27;;
10309;SDS011;5200;43.236;27.986;2023-03-01T19:11:40;15.75;;;9.90;;
10309;SDS011;5200;43.236;27.986;2023-03-01T19:14:07;12.90;;;9.63;;
10309;SDS011;5200;43.236;27.986;2023-03-01T19:16:37;14.77;;;10.32;;
10309;SDS011;5200;43.236;27.986;2023-03-01T19:19:05;13.23;;;9.32;;
10309;SDS011;5200;43.236;27.986;2023-03-01T19:21:34;14.93;;;8.85;;
10309;SDS011;5200;43.236;27.986;2023-03-01T19:24:03;11.25;;;8.98;;
10309;SDS011;5200;43.236;27.986;2023-03-01T19:26:33;13.60;;;9.35;;
10309;SDS011;5200;43.236;27.986;2023-03-01T19:29:00;13.80;;;9.23;;
10309;SDS011;5200;43.236;27.986;2023-03-01T19:31:29;13.30;;;9.27;;
10309;SDS011;5200;43.236;27.986;2023-03-01T19:33:56;11.30;;;8.80;;
10309;SDS011;5200;43.236;27.986;2023-03-01T19:36:28;17.30;;;11.20;;
10309;SDS011;5200;43.236;27.986;2023-03-01T19:38:58;14.27;;;10.00;;
10309;SDS011;5200;43.236;27.986;2023-03-01T19:41:29;14.10;;;10.75;;
10309;SDS011;5200;43.236;27.986;2023-03-01T19:44:01;12.80;;;9.57;;
10309;SDS011;5200;43.236;27.986;2023-03-01T19:46:30;17.70;;;10.57;;
10309;SDS011;5200;43.236;27.986;2023-03-01T19:48:57;13.60;;;10.40;;
10309;SDS011;5200;43.236;27.986;2023-03-01T19:51:25;14.18;;;10.77;;
10309;SDS011;5200;43.236;27.986;2023-03-01T19:53:54;14.88;;;10.10;;
10309;SDS011;5200;43.236;27.986;2023-03-01T19:56:23;13.25;;;10.13;;
10309;SDS011;5200;43.236;27.986;2023-03-01T19:58:50;14.32;;;10.63;;
10309;SDS011;5200;43.236;27.986;2023-03-01T20:01:24;14.65;;;11.02;;
10309;SDS011;5200;43.236;27.986;2023-03-01T20:03:53;14.75;;;9.95;;
10309;SDS011;5200;43.236;27.986;2023-03-01T20:06:35;14.85;;;10.85;;
10309;SDS011;5200;43.236;27.986;2023-03-01T20:09:05;15.55;;;10.70;;
10309;SDS011;5200;43.236;27.986;2023-03-01T20:11:33;13.55;;;9.90;;
10309;SDS011;5200;43.236;27.986;2023-03-01T20:14:00;16.60;;;10.35;;
10309;SDS011;5200;43.236;27.986;2023-03-01T20:16:31;15.75;;;10.80;;
10309;SDS011;5200;43.236;27.986;2023-03-01T20:18:58;19.83;;;11.27;;
10309;SDS011;5200;43.236;27.986;2023-03-01T20:21:26;18.33;;;12.88;;
10309;SDS011;5200;43.236;27.986;2023-03-01T20:23:53;17.58;;;11.35;;
10309;SDS011;5200;43.236;27.986;2023-03-01T20:26:22;26.98;;;17.45;;
10309;SDS011;5200;43.236;27.986;2023-03-01T20:28:52;15.20;;;11.05;;
10309;SDS011;5200;43.236;27.986;2023-03-01T20:31:21;15.85;;;11.40;;
10309;SDS011;5200;43.236;27.986;2023-03-01T20:33:53;16.00;;;11.30;;
10309;SDS011;5200;43.236;27.986;2023-03-01T20:36:24;18.08;;;12.02;;
10309;SDS011;5200;43.236;27.986;2023-03-01T20:38:52;16.65;;;12.60;;
10309;SDS011;5200;43.236;27.986;2023-03-01T20:41:19;14.90;;;10.17;;
10309;SDS011;5200;43.236;27.986;2023-03-01T20:43:50;17.77;;;11.02;;
10309;SDS011;5200;43.236;27.986;2023-03-01T20:46:21;15.98;;;11.20;;
10309;SDS011;5200;43.236;27.986;2023-03-01T20:48:50;18.00;;;12.43;;
10309;SDS011;5200;43.236;27.986;2023-03-01T20:51:18;13.23;;;9.60;;
10309;SDS011;5200;43.236;27.986;2023-03-01T20:53:45;13.27;;;10.18;;
10309;SDS011;5200;43.236;27.986;2023-03-01T20:56:12;17.13;;;12.10;;
10309;SDS011;5200;43.236;27.986;2023-03-01T20:58:42;17.57;;;11.00;;
10309;SDS011;5200;43.236;27.986;2023-03-01T21:01:12;15.70;;;11.37;;
10309;SDS011;5200;43.236;27.986;2023-03-01T21:03:41;13.68;;;10.15;;
10309;SDS011;5200;43.236;27.986;2023-03-01T21:06:09;15.68;;;10.60;;
10309;SDS011;5200;43.236;27.986;2023-03-01T21:08:38;11.95;;;9.52;;
10309;SDS011;5200;43.236;27.986;2023-03-01T21:11:05;18.90;;;11.30;;
10309;SDS011;5200;43.236;27.986;2023-03-01T21:13:33;13.67;;;10.27;;
10309;SDS011;5200;43.236;27.986;2023-03-01T21:16:02;16.67;;;11.65;;
10309;SDS011;5200;43.236;27.986;2023-03-01T21:18:32;19.30;;;12.53;;
10309;SDS011;5200;43.236;27.986;2023-03-01T21:21:01;17.57;;;13.07;;